createdAt,value
2023-03-05T00:02:56.156Z,102346.16
2023-03-05T00:08:00.791Z,102337.19
2023-03-05T00:13:06.310Z,102330.03
2023-03-05T00:18:09.281Z,102327.41
2023-03-05T00:23:13.955Z,102308.03
2023-03-05T00:28:16.892Z,102306.59
2023-03-05T00:33:19.868Z,102292.03
2023-03-05T00:38:24.431Z,102302.47
2023-03-05T00:43:27.689Z,102293.75
2023-03-05T00:48:30.688Z,102292.97
2023-03-05T00:53:34.985Z,102300.78
2023-03-05T00:58:38.120Z,102289.72
2023-03-05T01:03:41.122Z,102284.78
2023-03-05T01:08:46.216Z,102281.81
2023-03-05T01:13:49.623Z,102279.06
2023-03-05T01:18:52.520Z,102270.72
2023-03-05T01:23:56.995Z,102268.41
2023-03-05T01:29:00.073Z,102262.63
2023-03-05T01:34:03.394Z,102248.59
2023-03-05T01:39:08.590Z,102227.63
2023-03-05T01:44:23.050Z,102232.44
2023-03-05T01:49:27.942Z,102226.47
2023-03-05T01:54:36.070Z,102219.59
2023-03-05T01:59:40.840Z,102204.38
2023-03-05T02:04:47.681Z,102201.25
2023-03-05T02:09:52.539Z,102192.00
2023-03-05T02:14:59.437Z,102183.28
2023-03-05T02:20:08.353Z,102173.16
2023-03-05T02:25:18.717Z,102172.38
2023-03-05T02:30:21.788Z,102164.34
2023-03-05T02:35:25.783Z,102156.00
2023-03-05T02:40:30.489Z,102157.97
2023-03-05T02:45:34.192Z,102145.09
2023-03-05T02:50:39.816Z,102143.03
2023-03-05T02:55:47.809Z,102133.53
2023-03-05T03:00:51.258Z,102120.66
2023-03-05T03:05:54.404Z,102126.47
2023-03-05T03:11:06.123Z,102116.72
2023-03-05T03:16:11.540Z,102109.47
2023-03-05T03:21:19.193Z,102106.59
2023-03-05T03:26:26.550Z,102082.94
2023-03-05T03:31:29.445Z,102092.31
2023-03-05T03:36:32.410Z,102087.91
2023-03-05T03:41:37.566Z,102078.06
2023-03-05T03:46:41.920Z,102072.84
2023-03-05T03:51:44.944Z,102079.09
2023-03-05T03:56:49.504Z,102072.31
2023-03-05T04:01:52.559Z,102063.09
2023-03-05T04:06:55.974Z,102059.84
2023-03-05T04:12:00.374Z,102049.44
2023-03-05T04:17:06.230Z,102039.81
2023-03-05T04:22:12.375Z,102039.28
2023-03-05T04:27:17.086Z,102026.03
2023-03-05T04:32:23.272Z,102026.41
2023-03-05T04:37:27.662Z,102029.41
2023-03-05T04:42:32.110Z,102023.81
2023-03-05T04:47:35.885Z,102020.94
2023-03-05T04:52:40.565Z,102025.53
2023-03-05T04:57:45.225Z,102016.31
2023-03-05T05:02:50.367Z,102016.06
2023-03-05T05:07:55.926Z,102005.41
2023-03-05T05:13:00.281Z,102006.59
2023-03-05T05:18:03.229Z,101998.41
2023-03-05T05:23:06.242Z,101987.63
2023-03-05T05:28:11.115Z,101982.69
2023-03-05T05:33:14.182Z,101981.00
2023-03-05T05:38:17.205Z,101976.22
2023-03-05T05:43:21.580Z,101977.25
2023-03-05T05:48:25.000Z,101978.00
2023-03-05T05:53:28.184Z,101971.00
2023-03-05T05:58:32.658Z,101959.41
2023-03-05T06:03:35.625Z,101967.88
2023-03-05T06:08:38.793Z,101962.78
2023-03-05T06:13:43.712Z,101957.75
2023-03-05T06:18:46.964Z,101957.59
2023-03-05T06:23:50.284Z,101958.91
2023-03-05T06:28:54.971Z,101954.78
2023-03-05T06:34:04.670Z,101949.19
2023-03-05T06:39:10.749Z,101955.16
2023-03-05T06:44:15.202Z,101949.56
2023-03-05T06:49:21.023Z,101955.38
2023-03-05T06:54:24.040Z,101953.44
2023-03-05T06:59:28.450Z,101957.34
2023-03-05T07:04:31.600Z,101953.81
2023-03-05T07:09:34.741Z,101949.47
2023-03-05T07:14:40.122Z,101949.94
2023-03-05T07:19:43.939Z,101949.75
2023-03-05T07:24:46.982Z,101959.69
2023-03-05T07:29:51.378Z,101940.94
2023-03-05T07:34:54.336Z,101942.75
2023-03-05T07:39:57.463Z,101947.69
2023-03-05T07:45:01.811Z,101942.31
2023-03-05T07:50:07.080Z,101938.88
2023-03-05T07:55:11.470Z,101932.56
2023-03-05T08:00:16.912Z,101925.69
2023-03-05T08:05:19.874Z,101915.81
2023-03-05T08:10:22.872Z,101913.94
2023-03-05T08:15:27.331Z,101916.28
2023-03-05T08:20:35.797Z,101913.44
2023-03-05T08:25:39.048Z,101910.41
2023-03-05T08:30:43.427Z,101913.75
2023-03-05T08:35:46.649Z,101904.25
2023-03-05T08:40:49.744Z,101891.56
2023-03-05T08:45:54.789Z,101888.91
2023-03-05T08:50:57.839Z,101882.50
2023-03-05T08:56:01.422Z,101883.22
2023-03-05T09:01:06.423Z,101881.13
2023-03-05T09:06:12.402Z,101880.13
2023-03-05T09:11:15.686Z,101877.16
2023-03-05T09:16:21.169Z,101879.66
2023-03-05T09:21:24.292Z,101877.50
2023-03-05T09:26:27.974Z,101873.16
2023-03-05T09:31:32.419Z,101864.09
2023-03-05T09:36:35.488Z,101865.41
2023-03-05T09:41:57.204Z,101858.63
2023-03-05T09:47:15.790Z,101860.34
2023-03-05T09:52:22.327Z,101856.00
2023-03-05T09:57:46.154Z,101855.03
2023-03-05T10:02:55.772Z,101854.38
2023-03-05T10:08:04.274Z,101852.59
2023-03-05T10:13:17.638Z,101834.28
2023-03-05T10:18:28.403Z,101842.63
2023-03-05T10:23:59.994Z,101829.63
2023-03-05T10:29:25.754Z,101828.16
2023-03-05T10:34:46.253Z,101815.63
2023-03-05T10:40:04.923Z,101814.44
2023-03-05T10:45:15.802Z,101800.59
2023-03-05T10:50:23.891Z,101802.25
2023-03-05T10:55:26.903Z,101786.06
2023-03-05T11:00:30.025Z,101774.78
2023-03-05T11:05:50.127Z,101772.16
2023-03-05T11:11:07.928Z,101765.78
2023-03-05T11:16:20.782Z,101764.38
2023-03-05T11:21:28.007Z,101765.59
2023-03-05T11:26:31.280Z,101759.69
2023-03-05T11:31:35.528Z,101738.19
2023-03-05T11:36:41.879Z,101743.88
2023-03-05T11:41:49.794Z,101732.09
2023-03-05T11:46:57.674Z,101721.00
2023-03-05T11:52:10.970Z,101713.16
2023-03-05T11:57:16.879Z,101713.44
2023-03-05T12:02:23.258Z,101703.38
2023-03-05T12:07:36.762Z,101694.38
2023-03-05T12:12:45.086Z,101685.25
2023-03-05T12:17:55.600Z,101684.34
2023-03-05T12:23:00.405Z,101660.75
2023-03-05T12:28:14.946Z,101657.81
2023-03-05T12:33:32.730Z,101642.28
2023-03-05T12:38:38.139Z,101631.81
2023-03-05T12:43:42.531Z,101620.72
2023-03-05T12:48:46.146Z,101619.25
2023-03-05T12:53:53.310Z,101607.75
2023-03-05T12:59:06.194Z,101602.16
2023-03-05T13:04:19.813Z,101592.84
2023-03-05T13:09:27.698Z,101589.34
2023-03-05T13:14:37.615Z,101583.31
2023-03-05T13:19:43.164Z,101549.44
2023-03-05T13:24:48.055Z,101557.94
2023-03-05T13:29:55.144Z,101548.84
2023-03-05T13:35:00.525Z,101541.50
2023-03-05T13:40:21.712Z,101538.88
2023-03-05T13:45:28.189Z,101522.81
2023-03-05T13:50:33.437Z,101524.28
2023-03-05T13:55:37.932Z,101513.38
2023-03-05T14:00:41.393Z,101507.22
2023-03-05T14:05:45.818Z,101500.94
2023-03-05T14:10:51.469Z,101488.63
2023-03-05T14:16:07.924Z,101493.78
2023-03-05T14:21:12.709Z,101492.25
2023-03-05T14:26:28.799Z,101482.84
2023-03-05T14:31:40.048Z,101475.06
2023-03-05T14:36:49.703Z,101468.47
2023-03-05T14:41:54.686Z,101457.97
2023-03-05T14:46:58.921Z,101454.88
2023-03-05T14:52:01.974Z,101436.16
2023-03-05T14:57:15.663Z,101431.69
2023-03-05T15:02:22.984Z,101421.97
2023-03-05T15:07:30.224Z,101405.28
2023-03-05T15:12:34.722Z,101406.19
2023-03-05T15:17:42.461Z,101396.53
2023-03-05T15:22:45.624Z,101390.78
2023-03-05T15:27:51.037Z,101388.41
2023-03-05T15:32:55.435Z,101384.88
2023-03-05T15:37:58.693Z,101379.38
2023-03-05T15:43:03.249Z,101364.22
2023-03-05T15:48:12.270Z,101363.69
2023-03-05T15:53:17.968Z,101367.06
2023-03-05T15:58:22.572Z,101364.09
2023-03-05T16:03:25.818Z,101369.28
2023-03-05T16:08:29.505Z,101354.22
2023-03-05T16:13:36.001Z,101343.88
2023-03-05T16:18:42.883Z,101330.06
2023-03-05T16:23:46.039Z,101320.41
2023-03-05T16:28:50.484Z,101316.56
2023-03-05T16:33:53.562Z,101319.97
2023-03-05T16:38:58.579Z,101307.13
2023-03-05T16:44:05.430Z,101309.72
2023-03-05T16:49:10.094Z,101307.91
2023-03-05T16:54:13.308Z,101298.53
2023-03-05T16:59:17.865Z,101296.94
2023-03-05T17:04:21.002Z,101284.81
2023-03-05T17:09:24.805Z,101294.75
2023-03-05T17:14:29.505Z,101299.22
2023-03-05T17:19:32.739Z,101286.88
2023-03-05T17:24:36.508Z,101299.31
2023-03-05T17:29:41.141Z,101288.88
2023-03-05T17:34:44.657Z,101300.59
2023-03-05T17:39:47.816Z,101293.97
2023-03-05T17:44:52.429Z,101292.75
2023-03-05T17:49:55.585Z,101285.53
2023-03-05T17:54:59.306Z,101290.81
2023-03-05T18:00:06.367Z,101303.00
2023-03-05T18:05:15.887Z,101300.34
2023-03-05T18:10:20.968Z,101289.53
2023-03-05T18:15:27.505Z,101284.00
2023-03-05T18:20:32.826Z,101293.84
2023-03-05T18:25:36.324Z,101284.09
2023-03-05T18:30:41.825Z,101274.09
2023-03-05T18:35:45.166Z,101275.22
2023-03-05T18:40:51.140Z,101282.13
2023-03-05T18:45:57.504Z,101265.84
2023-03-05T18:51:02.098Z,101253.53
2023-03-05T18:56:06.839Z,101251.91
2023-03-05T19:01:11.323Z,101243.44
2023-03-05T19:06:14.722Z,101245.16
2023-03-05T19:11:19.985Z,101246.03
2023-03-05T19:16:26.742Z,101233.34
2023-03-05T19:21:30.882Z,101237.38
2023-03-05T19:26:34.195Z,101219.88
2023-03-05T19:31:39.597Z,101229.34
2023-03-05T19:36:42.681Z,101218.47
2023-03-05T19:41:45.783Z,101207.47
2023-03-05T19:46:50.834Z,101196.69
2023-03-05T19:51:54.234Z,101188.78
2023-03-05T19:56:58.900Z,101190.59
2023-03-05T20:02:05.775Z,101175.75
2023-03-05T20:07:10.463Z,101183.00
2023-03-05T20:12:13.567Z,101181.28
2023-03-05T20:17:18.102Z,101185.69
2023-03-05T20:22:21.157Z,101179.56
2023-03-05T20:27:24.302Z,101160.16
2023-03-05T20:32:28.845Z,101160.97
2023-03-05T20:37:40.112Z,101165.97
2023-03-05T20:42:43.336Z,101162.47
2023-03-05T20:47:48.765Z,101156.34
2023-03-05T20:52:51.821Z,101158.66
2023-03-05T20:57:54.780Z,101150.53
2023-03-05T21:02:59.240Z,101137.63
2023-03-05T21:08:09.204Z,101126.47
2023-03-05T21:13:12.278Z,101136.25
2023-03-05T21:18:16.681Z,101128.41
2023-03-05T21:23:19.870Z,101128.00
2023-03-05T21:28:23.072Z,101128.78
2023-03-05T21:33:30.655Z,101121.69
2023-03-05T21:38:34.708Z,101112.41
2023-03-05T21:43:38.123Z,101098.31
2023-03-05T21:48:42.680Z,101103.09
2023-03-05T21:53:46.269Z,101089.22
2023-03-05T21:58:50.142Z,101098.59
2023-03-05T22:03:57.039Z,101092.63
2023-03-05T22:09:00.140Z,101078.50
2023-03-05T22:14:06.540Z,101065.22
2023-03-05T22:19:11.525Z,101069.03
2023-03-05T22:24:14.647Z,101064.53
2023-03-05T22:29:17.729Z,101055.75
2023-03-05T22:34:22.263Z,101038.03
2023-03-05T22:39:25.368Z,101037.50
2023-03-05T22:44:28.424Z,101027.78
2023-03-05T22:49:34.099Z,101023.41
2023-03-05T22:54:37.166Z,101022.38
2023-03-05T22:59:40.368Z,101012.00
2023-03-05T23:04:53.244Z,101006.59
2023-03-05T23:09:58.459Z,100998.41
2023-03-05T23:15:06.238Z,100993.34
2023-03-05T23:20:14.508Z,100980.56
2023-03-05T23:25:21.260Z,100982.81
2023-03-05T23:30:24.881Z,100976.19
2023-03-05T23:35:31.301Z,100970.25
2023-03-05T23:40:36.877Z,100979.19
2023-03-05T23:45:41.724Z,100959.94
2023-03-05T23:50:48.224Z,100959.06
2023-03-05T23:55:52.057Z,100944.00
